Time;durP1;ratioP1;P1;durP2;ratioP2;P2;SDS_P1;SDS_P2;PMS_P1;PMS_P2;Temp;Humidity;BMP_temperature;BMP_pressure;BME280_temperature;BME280_humidity;BME280_pressure;Samples;Min_cycle;Max_cycle;Signal;HPM_P1;HPM_P2
2021/03/13 00:01:58;;;;;;;66.65;42.78;;;;;;;1.38;84.31;99843.11;1717400;82;21054;-54
2021/03/13 00:04:23;;;;;;;72.60;44.23;;;;;;;1.42;84.42;99846.74;1717520;83;21301;-54
2021/03/13 00:07:02;;;;;;;70.05;41.10;;;;;;;1.45;84.57;99851.70;1717680;83;21061;-54
2021/03/13 00:09:23;;;;;;;68.37;39.88;;;;;;;1.44;84.53;99848.68;1717072;83;21211;-54
2021/03/13 00:11:55;;;;;;;72.67;41.73;;;;;;;1.43;84.60;99845.67;1718104;83;21616;-54
2021/03/13 00:14:26;;;;;;;74.92;42.75;;;;;;;1.47;84.69;99840.10;1718494;83;21026;-54
2021/03/13 00:16:53;;;;;;;66.77;41.70;;;;;;;1.50;84.70;99836.94;1717838;83;21205;-55
2021/03/13 00:19:32;;;;;;;77.40;42.30;;;;;;;1.52;84.75;99840.26;1718041;83;21135;-55
2021/03/13 00:22:02;;;;;;;80.05;44.85;;;;;;;1.54;84.74;99837.62;1717958;83;21061;-54
2021/03/13 00:24:30;;;;;;;79.03;46.00;;;;;;;1.53;84.77;99837.32;1718274;83;21013;-54
2021/03/13 00:27:00;;;;;;;71.47;42.48;;;;;;;1.56;84.83;99838.75;1717350;83;21061;-54
2021/03/13 00:29:36;;;;;;;71.42;42.40;;;;;;;1.59;84.82;99834.23;1717242;83;22348;-54
2021/03/13 00:32:06;;;;;;;66.45;41.85;;;;;;;1.63;84.85;99838.13;1717540;83;21588;-54
2021/03/13 00:34:33;;;;;;;65.22;41.30;;;;;;;1.63;84.88;99835.43;1718393;83;21604;-54
2021/03/13 00:37:00;;;;;;;69.12;40.90;;;;;;;1.66;84.98;99834.97;1718206;83;21735;-54
2021/03/13 00:39:30;;;;;;;64.82;42.25;;;;;;;1.67;84.93;99831.21;1715790;83;21065;-54
2021/03/13 00:41:58;;;;;;;64.25;40.85;;;;;;;1.67;84.93;99827.15;1718389;83;21155;-54
2021/03/13 00:44:25;;;;;;;56.33;38.28;;;;;;;1.66;85.00;99826.84;1718153;83;21059;-54
2021/03/13 00:46:52;;;;;;;65.92;39.78;;;;;;;1.66;85.14;99829.55;1718145;83;21038;-54
2021/03/13 00:49:20;;;;;;;65.70;42.48;;;;;;;1.69;85.20;99833.15;1718150;83;21029;-54
2021/03/13 00:51:48;;;;;;;66.85;41.48;;;;;;;1.69;85.20;99837.21;1718366;83;21030;-54
2021/03/13 00:54:19;;;;;;;63.48;38.78;;;;;;;1.68;85.27;99837.44;1717703;83;21278;-54
2021/03/13 00:56:49;;;;;;;65.62;39.92;;;;;;;1.68;85.34;99842.31;1717908;83;21017;-54
2021/03/13 00:59:17;;;;;;;61.70;39.65;;;;;;;1.71;85.46;99845.91;1717805;82;21002;-54
2021/03/13 01:01:50;;;;;;;58.98;37.00;;;;;;;1.72;85.44;99841.34;1717352;83;21033;-54
2021/03/13 01:04:17;;;;;;;67.97;37.55;;;;;;;1.72;85.51;99853.53;1718032;83;21022;-54
2021/03/13 01:06:45;;;;;;;70.00;39.75;;;;;;;1.73;85.69;99854.66;1718280;83;21442;-54
2021/03/13 01:09:13;;;;;;;57.25;35.85;;;;;;;1.75;85.65;99847.66;1708382;83;21073;-53
2021/03/13 01:11:41;;;;;;;66.00;39.75;;;;;;;1.78;85.68;99848.54;1684526;84;21568;-54
2021/03/13 01:14:09;;;;;;;61.40;37.28;;;;;;;1.84;85.73;99857.13;1704689;84;21160;-54
2021/03/13 01:16:38;;;;;;;63.38;39.92;;;;;;;1.87;85.66;99858.52;1704263;83;21046;-54
2021/03/13 01:19:06;;;;;;;58.87;37.45;;;;;;;1.89;85.52;99853.72;1704794;84;21112;-54
2021/03/13 01:21:34;;;;;;;58.73;34.48;;;;;;;1.90;85.45;99855.34;1704721;84;21030;-54
2021/03/13 01:24:03;;;;;;;61.88;38.78;;;;;;;1.91;85.33;99863.78;1704648;84;21023;-54
2021/03/13 01:26:33;;;;;;;59.40;38.65;;;;;;;1.93;85.32;99868.45;1704793;84;21632;-54
2021/03/13 01:29:01;;;;;;;57.85;38.13;;;;;;;1.98;85.43;99869.92;1704666;84;21023;-54
2021/03/13 01:31:36;;;;;;;55.15;35.35;;;;;;;2.03;85.34;99876.00;1704638;83;21718;-54
2021/03/13 01:34:04;;;;;;;47.20;33.00;;;;;;;2.04;85.13;99877.66;1684433;84;21039;-54
2021/03/13 01:36:33;;;;;;;56.53;37.30;;;;;;;2.04;85.09;99881.22;1704611;84;21069;-54
2021/03/13 01:39:03;;;;;;;51.88;36.75;;;;;;;2.03;84.95;99886.84;1704681;84;21074;-54
2021/03/13 01:41:33;;;;;;;53.08;36.23;;;;;;;2.01;84.98;99884.36;1704848;84;21497;-54
2021/03/13 01:44:00;;;;;;;50.67;35.30;;;;;;;2.01;85.08;99882.19;1704663;84;22065;-54
2021/03/13 01:46:28;;;;;;;46.77;32.60;;;;;;;2.03;85.15;99883.62;1704374;84;21011;-54
2021/03/13 01:48:56;;;;;;;53.17;36.42;;;;;;;2.06;85.05;99893.98;1704688;84;20947;-54
2021/03/13 01:51:25;;;;;;;48.00;34.10;;;;;;;2.08;85.13;99891.86;1704595;84;21030;-54
2021/03/13 01:53:54;;;;;;;53.73;37.78;;;;;;;2.13;85.08;99897.13;1704663;84;21047;-54
2021/03/13 01:56:23;;;;;;;50.25;38.95;;;;;;;2.14;84.94;99900.95;1684964;84;21390;-54
2021/03/13 01:58:52;;;;;;;43.68;30.52;;;;;;;2.14;84.83;99894.18;1684645;84;21097;-54
2021/03/13 02:01:34;;;;;;;42.13;32.17;;;;;;;2.13;84.78;99895.26;1704227;83;21046;-54
2021/03/13 02:04:04;;;;;;;44.20;32.08;;;;;;;2.12;84.82;99909.04;1704548;84;21034;-54
2021/03/13 02:06:32;;;;;;;45.75;34.20;;;;;;;2.14;84.89;99909.63;1704692;84;21053;-54
2021/03/13 02:09:25;;;;;;;41.48;31.87;;;;;;;2.15;84.84;99920.77;1708300;83;21112;-54
2021/03/13 02:12:10;;;;;;;43.83;33.25;;;;;;;2.14;84.87;99925.87;1712738;83;21061;-54
2021/03/13 02:15:11;;;;;;;44.93;30.85;;;;;;;2.14;84.89;99927.23;1712615;83;21622;-54
2021/03/13 02:18:10;;;;;;;44.15;31.80;;;;;;;2.15;84.87;99931.61;1712013;83;21019;-54
2021/03/13 02:21:20;;;;;;;42.65;31.25;;;;;;;2.15;84.86;99929.70;1711662;83;21042;-54
2021/03/13 02:24:30;;;;;;;44.88;29.90;;;;;;;2.16;84.87;99931.87;1711933;83;21295;-54
2021/03/13 02:27:28;;;;;;;40.08;28.92;;;;;;;2.15;84.83;99936.48;1712394;83;21640;-54
2021/03/13 02:30:04;;;;;;;41.18;30.82;;;;;;;2.16;84.95;99936.79;1711484;83;21633;-54
2021/03/13 02:33:06;;;;;;;41.02;32.85;;;;;;;2.15;84.86;99934.31;1712143;83;21371;-54
2021/03/13 02:35:40;;;;;;;44.33;32.20;;;;;;;2.16;85.02;99936.79;1710483;83;21576;-54
2021/03/13 02:38:18;;;;;;;39.63;31.15;;;;;;;2.18;85.02;99933.84;1712536;83;21363;-54
2021/03/13 02:40:46;;;;;;;44.08;32.67;;;;;;;2.20;85.00;99937.98;1712467;83;21046;-54
2021/03/13 02:43:15;;;;;;;38.35;29.02;;;;;;;2.20;84.97;99939.84;1712488;83;20954;-54
2021/03/13 02:45:49;;;;;;;41.18;30.92;;;;;;;2.23;85.08;99938.06;1712508;83;21038;-54
2021/03/13 02:48:18;;;;;;;46.00;34.23;;;;;;;2.24;84.97;99940.54;1712647;83;22033;-54
2021/03/13 02:50:47;;;;;;;46.45;32.88;;;;;;;2.29;85.09;99949.83;1712524;83;21203;-54
2021/03/13 02:53:16;;;;;;;46.50;32.20;;;;;;;2.30;85.12;99944.21;1712171;83;21078;-54
2021/03/13 02:55:44;;;;;;;46.50;34.53;;;;;;;2.32;85.10;99947.50;1712565;83;21042;-54
2021/03/13 02:58:14;;;;;;;44.77;31.62;;;;;;;2.34;84.99;99936.43;1712329;82;21006;-53
2021/03/13 03:00:42;;;;;;;42.30;32.03;;;;;;;2.34;84.81;99939.95;1712596;83;20983;-54
2021/03/13 03:03:12;;;;;;;53.52;36.53;;;;;;;2.34;84.91;99939.95;1712459;83;22143;-54
2021/03/13 03:05:58;;;;;;;45.92;32.83;;;;;;;2.36;85.01;99939.75;1712528;83;21060;-54
2021/03/13 03:08:26;;;;;;;46.70;33.00;;;;;;;2.36;84.92;99935.15;1711583;83;21030;-54
2021/03/13 03:10:55;;;;;;;44.77;32.88;;;;;;;2.32;84.86;99933.95;1704571;84;21063;-54
2021/03/13 03:13:26;;;;;;;44.65;33.30;;;;;;;2.27;84.86;99935.16;1704665;84;21034;-54
2021/03/13 03:15:56;;;;;;;43.75;33.28;;;;;;;2.23;84.94;99940.77;1703994;83;21373;-54
2021/03/13 03:18:27;;;;;;;42.10;30.62;;;;;;;2.18;85.01;99933.84;1703874;84;21023;-54
2021/03/13 03:20:56;;;;;;;47.35;35.60;;;;;;;2.15;85.15;99927.54;1704260;83;21070;-54
2021/03/13 03:23:24;;;;;;;46.60;35.52;;;;;;;2.11;85.33;99933.12;1704488;83;21736;-54
2021/03/13 03:25:53;;;;;;;49.77;38.38;;;;;;;2.11;85.48;99937.18;1704678;84;20999;-54
2021/03/13 03:28:21;;;;;;;43.30;32.70;;;;;;;2.10;85.56;99921.97;1704659;84;21838;-54
2021/03/13 03:30:54;;;;;;;48.38;31.77;;;;;;;2.07;85.61;99922.74;1703159;83;21078;-54
2021/03/13 03:33:23;;;;;;;40.15;28.67;;;;;;;2.04;85.68;99927.27;1703887;84;21070;-54
2021/03/13 03:35:55;;;;;;;40.48;28.30;;;;;;;2.00;85.84;99923.36;1704144;84;20994;-53
2021/03/13 03:38:29;;;;;;;39.90;28.17;;;;;;;1.98;86.17;99928.16;1683912;84;21046;-53
2021/03/13 03:41:00;;;;;;;42.62;32.05;;;;;;;1.98;86.30;99941.70;1704283;83;21373;-54
2021/03/13 03:43:45;;;;;;;47.67;34.33;;;;;;;2.01;86.44;99958.04;1703992;83;21628;-54
2021/03/13 03:46:15;;;;;;;47.70;35.78;;;;;;;2.01;86.61;99966.98;1703998;84;22158;-53
2021/03/13 03:48:43;;;;;;;47.10;32.38;;;;;;;2.01;86.77;99966.98;1704643;83;21074;-54
2021/03/13 03:51:14;;;;;;;42.33;31.60;;;;;;;2.03;86.93;99973.02;1704168;83;21034;-54
2021/03/13 03:53:48;;;;;;;44.05;32.03;;;;;;;2.08;87.00;99983.16;1704136;84;21766;-54
2021/03/13 03:56:19;;;;;;;46.30;32.80;;;;;;;2.13;87.06;99975.69;1704755;84;21030;-53
2021/03/13 03:58:48;;;;;;;44.90;32.17;;;;;;;2.16;86.96;99980.65;1704597;82;21050;-53
2021/03/13 04:01:16;;;;;;;39.55;27.93;;;;;;;2.16;86.90;99968.45;1704698;84;21067;-54
2021/03/13 04:03:53;;;;;;;41.37;31.23;;;;;;;2.14;86.77;99965.16;1704613;83;21641;-54
2021/03/13 04:06:21;;;;;;;51.50;34.98;;;;;;;2.08;86.83;99960.95;1704623;84;21355;-54
2021/03/13 04:09:01;;;;;;;46.13;30.23;;;;;;;2.06;86.99;99969.03;1705878;83;21525;-54
2021/03/13 04:11:30;;;;;;;43.85;30.17;;;;;;;2.01;87.07;99968.34;1717326;83;20990;-54
2021/03/13 04:14:08;;;;;;;46.02;31.37;;;;;;;1.97;87.35;99973.94;1717039;83;21050;-54
2021/03/13 04:16:38;;;;;;;42.85;32.13;;;;;;;1.95;87.50;99985.51;1717584;83;21005;-54
2021/03/13 04:19:07;;;;;;;44.58;32.10;;;;;;;1.95;87.82;99992.81;1691885;83;21363;-54
2021/03/13 04:21:36;;;;;;;47.88;33.98;;;;;;;1.94;87.93;99983.84;1718213;83;21034;-54
2021/03/13 04:24:07;;;;;;;43.52;31.93;;;;;;;1.93;88.07;99975.44;1717853;83;21077;-54
2021/03/13 04:26:43;;;;;;;40.63;28.75;;;;;;;1.93;88.19;99971.37;1717343;83;21081;-54
2021/03/13 04:29:11;;;;;;;43.05;30.70;;;;;;;1.96;88.27;99984.46;1718314;83;21592;-54
2021/03/13 04:31:38;;;;;;;49.35;33.40;;;;;;;1.98;88.40;99987.76;1718100;83;21943;-54
2021/03/13 04:34:11;;;;;;;47.10;30.80;;;;;;;1.98;88.44;99982.34;1717821;83;21635;-54
2021/03/13 04:36:40;;;;;;;41.13;29.05;;;;;;;1.98;88.38;99985.05;1717458;83;21723;-54
2021/03/13 04:39:09;;;;;;;39.35;28.40;;;;;;;2.00;88.45;99987.53;1717135;83;21053;-54
2021/03/13 04:41:41;;;;;;;43.17;30.48;;;;;;;2.02;88.46;99993.56;1717368;83;21022;-54
2021/03/13 04:44:14;;;;;;;45.63;31.20;;;;;;;2.04;88.53;100004.48;1717342;83;21287;-54
2021/03/13 04:46:42;;;;;;;40.78;28.42;;;;;;;2.08;88.53;100008.36;1717766;83;21037;-54
2021/03/13 04:49:10;;;;;;;44.38;28.65;;;;;;;2.10;88.50;100010.88;1717852;83;21022;-54
2021/03/13 04:51:39;;;;;;;41.90;29.82;;;;;;;2.11;88.47;100008.98;1718143;83;21048;-54
2021/03/13 04:54:07;;;;;;;41.48;29.50;;;;;;;2.14;88.46;100008.52;1718340;83;21054;-54
2021/03/13 04:56:39;;;;;;;54.98;35.17;;;;;;;2.16;88.37;100014.02;1717819;83;21214;-54
2021/03/13 04:59:09;;;;;;;47.95;30.12;;;;;;;2.18;88.40;100016.48;1717276;82;21085;-54
2021/03/13 05:01:39;;;;;;;45.75;29.30;;;;;;;2.20;88.35;100011.15;1717386;83;21058;-54
2021/03/13 05:04:19;;;;;;;38.13;27.05;;;;;;;2.21;88.28;100020.09;1717651;83;21066;-54
2021/03/13 05:06:46;;;;;;;42.67;29.18;;;;;;;2.24;88.25;100019.13;1717614;83;21046;-54
2021/03/13 05:09:25;;;;;;;50.48;31.65;;;;;;;2.25;88.20;100015.34;1716583;83;21466;-55
2021/03/13 05:11:57;;;;;;;45.70;29.10;;;;;;;2.27;88.17;100024.59;1717649;82;21041;-54
2021/03/13 05:14:25;;;;;;;39.38;26.15;;;;;;;2.30;88.19;100025.52;1717546;83;21041;-54
2021/03/13 05:16:52;;;;;;;45.52;33.05;;;;;;;2.32;88.06;100026.64;1718104;83;21006;-54
2021/03/13 05:19:20;;;;;;;49.38;35.50;;;;;;;2.33;88.01;100028.27;1717715;83;21006;-54
2021/03/13 05:21:48;;;;;;;47.95;31.40;;;;;;;2.36;88.02;100030.02;1717136;83;21154;-54
2021/03/13 05:24:18;;;;;;;42.67;31.02;;;;;;;2.40;87.95;100028.50;1717940;83;21002;-54
2021/03/13 05:26:49;;;;;;;41.53;28.90;;;;;;;2.42;87.96;100035.05;1717495;83;21085;-54
2021/03/13 05:29:17;;;;;;;42.08;28.12;;;;;;;2.45;87.88;100038.66;1717405;83;21085;-54
2021/03/13 05:31:45;;;;;;;48.20;29.70;;;;;;;2.49;87.83;100043.10;1717599;83;20994;-54
2021/03/13 05:34:16;;;;;;;44.30;31.10;;;;;;;2.52;87.68;100047.52;1717352;83;21215;-55
2021/03/13 05:36:56;;;;;;;42.38;26.80;;;;;;;2.57;87.57;100044.11;1775415;78;22915;-54
2021/03/13 05:39:23;;;;;;;48.35;31.15;;;;;;;2.53;87.65;100042.91;1747969;82;21025;-54
2021/03/13 05:41:51;;;;;;;40.45;29.27;;;;;;;2.57;87.60;100049.03;1747701;82;21386;-55
2021/03/13 05:44:18;;;;;;;40.83;28.67;;;;;;;2.61;87.55;100056.16;1759806;80;21014;-54
2021/03/13 05:46:48;;;;;;;43.20;27.75;;;;;;;2.64;87.33;100060.30;1780540;80;21038;-54
2021/03/13 05:49:18;;;;;;;39.53;27.30;;;;;;;2.62;87.23;100057.00;1707614;84;21234;-55
2021/03/13 05:51:47;;;;;;;42.95;30.80;;;;;;;2.62;87.16;100057.82;1736634;82;21049;-54
2021/03/13 05:54:18;;;;;;;44.70;31.40;;;;;;;2.64;87.15;100065.19;1707813;84;21289;-54
2021/03/13 05:56:45;;;;;;;45.03;30.15;;;;;;;2.69;87.08;100065.33;1717265;81;21073;-53
2021/03/13 05:59:15;;;;;;;43.73;30.37;;;;;;;2.69;86.98;100068.59;1683874;84;21216;-53
2021/03/13 06:01:53;;;;;;;39.15;27.98;;;;;;;2.75;86.86;100077.96;1775200;79;23489;-54
2021/03/13 06:04:22;;;;;;;38.20;27.52;;;;;;;2.70;86.83;100085.13;1746806;82;21085;-54
2021/03/13 06:06:52;;;;;;;43.95;29.45;;;;;;;2.73;86.86;100092.30;1746795;82;21497;-54
2021/03/13 06:09:22;;;;;;;52.75;34.05;;;;;;;2.82;86.79;100098.77;1747554;82;21506;-54
2021/03/13 06:11:52;;;;;;;47.78;29.82;;;;;;;2.88;86.43;100113.56;1747680;82;21034;-54
2021/03/13 06:14:19;;;;;;;50.33;31.37;;;;;;;2.90;86.20;100116.05;1747650;82;21058;-54
2021/03/13 06:16:50;;;;;;;45.45;32.03;;;;;;;2.96;86.09;100117.02;1746932;82;21062;-54
2021/03/13 06:19:23;;;;;;;44.13;31.30;;;;;;;3.01;85.89;100121.23;1747654;82;22312;-54
2021/03/13 06:21:52;;;;;;;40.05;27.80;;;;;;;3.08;85.55;100124.13;1747069;82;21057;-54
2021/03/13 06:24:26;;;;;;;41.80;28.65;;;;;;;3.10;85.28;100127.46;1747583;81;22122;-54
2021/03/13 06:26:57;;;;;;;40.58;26.97;;;;;;;3.11;85.06;100131.84;1747238;82;21042;-54
2021/03/13 06:29:27;;;;;;;42.10;29.72;;;;;;;3.12;84.93;100134.02;1746995;82;21345;-54
2021/03/13 06:32:10;;;;;;;44.70;30.88;;;;;;;3.16;84.89;100128.94;1745565;82;21468;-54
2021/03/13 06:34:49;;;;;;;39.35;27.37;;;;;;;3.21;84.74;100138.58;1744195;82;21596;-54
2021/03/13 06:37:28;;;;;;;39.30;28.17;;;;;;;3.25;84.49;100131.63;1747210;81;21616;-54
2021/03/13 06:40:01;;;;;;;41.50;27.48;;;;;;;3.29;84.27;100132.28;1746815;82;21054;-54
2021/03/13 06:42:29;;;;;;;40.52;29.02;;;;;;;3.38;84.02;100144.17;1747463;82;21631;-54
2021/03/13 06:45:04;;;;;;;39.38;28.85;;;;;;;3.46;83.75;100139.23;1746747;82;21692;-54
2021/03/13 06:47:37;;;;;;;43.45;28.17;;;;;;;3.59;83.53;100140.09;1746761;82;21138;-54
2021/03/13 06:50:18;;;;;;;33.73;24.87;;;;;;;3.73;83.07;100142.02;1747642;82;21049;-54
2021/03/13 06:52:54;;;;;;;38.42;27.87;;;;;;;3.87;82.65;100138.02;1747845;82;21109;-54
2021/03/13 06:55:24;;;;;;;40.23;28.67;;;;;;;4.04;82.08;100132.70;1734170;82;21039;-54
2021/03/13 06:57:54;;;;;;;37.00;25.25;;;;;;;4.21;81.23;100123.84;1718939;82;21252;-55
2021/03/13 07:00:34;;;;;;;37.05;25.48;;;;;;;4.32;81.09;100122.45;1700401;83;21083;-54
2021/03/13 07:03:08;;;;;;;39.50;26.57;;;;;;;4.52;80.39;100135.37;1696166;84;21063;-54
2021/03/13 07:05:37;;;;;;;40.88;28.27;;;;;;;4.67;79.49;100129.70;1696242;84;21091;-55
2021/03/13 07:08:30;;;;;;;38.75;27.07;;;;;;;4.79;79.08;100128.84;1681567;85;21657;-54
2021/03/13 07:11:12;;;;;;;39.85;27.98;;;;;;;5.04;78.72;100138.55;1696193;83;21811;-54
2021/03/13 07:13:45;;;;;;;42.43;28.77;;;;;;;5.22;77.23;100132.09;1695877;84;21035;-54
2021/03/13 07:16:38;;;;;;;38.70;27.35;;;;;;;5.18;76.75;100142.08;1695736;84;21059;-55
2021/03/13 07:19:11;;;;;;;39.00;28.12;;;;;;;5.18;76.39;100138.00;1681110;85;21068;-54
2021/03/13 07:21:42;;;;;;;53.50;33.25;;;;;;;5.30;76.59;100140.68;1695754;84;21016;-54
2021/03/13 07:24:13;;;;;;;42.00;29.40;;;;;;;5.58;76.53;100140.86;1695668;84;21145;-55
2021/03/13 07:26:43;;;;;;;39.40;29.18;;;;;;;5.79;75.22;100138.75;1680879;84;21088;-55
2021/03/13 07:29:14;;;;;;;43.02;31.33;;;;;;;5.85;74.65;100147.29;1695651;84;21059;-55
2021/03/13 07:31:50;;;;;;;42.45;29.57;;;;;;;5.91;73.95;100148.20;1681074;85;21029;-55
2021/03/13 07:34:19;;;;;;;39.65;30.00;;;;;;;5.87;73.77;100135.63;1695278;84;21068;-55
2021/03/13 07:36:53;;;;;;;43.55;30.95;;;;;;;5.86;73.35;100144.86;1695792;84;22285;-55
2021/03/13 07:39:42;;;;;;;42.05;31.25;;;;;;;5.76;73.29;100133.80;1680858;85;22203;-54
2021/03/13 07:42:20;;;;;;;36.40;26.70;;;;;;;5.79;73.53;100140.67;1695822;84;21685;-55
2021/03/13 07:44:48;;;;;;;38.15;27.73;;;;;;;5.96;73.24;100137.90;1681158;85;21096;-54
2021/03/13 07:47:18;;;;;;;32.20;25.60;;;;;;;6.01;72.62;100137.47;1695679;84;21071;-55
2021/03/13 07:49:46;;;;;;;37.50;26.70;;;;;;;5.98;72.51;100135.80;1695877;84;22126;-54
2021/03/13 07:52:17;;;;;;;38.42;26.70;;;;;;;6.03;72.65;100124.43;1681070;85;21635;-55
2021/03/13 07:54:48;;;;;;;35.73;25.75;;;;;;;6.19;72.76;100128.20;1678307;84;21024;-55
2021/03/13 07:57:20;;;;;;;34.67;26.33;;;;;;;6.39;72.03;100130.38;1695675;83;21370;-55
2021/03/13 07:59:54;;;;;;;37.90;26.77;;;;;;;6.51;71.59;100122.05;1694984;84;21020;-55
2021/03/13 08:02:34;;;;;;;36.45;25.65;;;;;;;6.51;70.59;100132.97;1680698;84;21418;-55
2021/03/13 08:05:10;;;;;;;41.30;29.98;;;;;;;6.32;70.83;100133.82;1695555;84;21662;-55
2021/03/13 08:08:00;;;;;;;41.50;29.92;;;;;;;6.31;71.02;100133.53;1680693;85;21025;-54
2021/03/13 08:10:49;;;;;;;37.28;26.73;;;;;;;6.36;70.80;100131.43;1695830;84;21193;-54
2021/03/13 08:13:35;;;;;;;41.85;29.30;;;;;;;6.32;70.72;100118.01;1695010;84;21067;-54
2021/03/13 08:16:20;;;;;;;40.48;30.05;;;;;;;6.37;70.64;100133.05;1694558;84;21222;-54
2021/03/13 08:18:51;;;;;;;43.20;30.48;;;;;;;6.48;70.39;100134.03;1691271;84;21079;-54
2021/03/13 08:21:24;;;;;;;38.65;28.92;;;;;;;6.51;70.03;100144.44;1681097;85;21060;-54
2021/03/13 08:23:59;;;;;;;37.30;29.55;;;;;;;6.55;69.89;100149.67;1695618;84;21051;-54
2021/03/13 08:26:41;;;;;;;33.18;25.95;;;;;;;6.62;69.71;100132.56;1681072;85;21087;-54
2021/03/13 08:29:10;;;;;;;41.48;27.82;;;;;;;6.65;69.36;100144.89;1694936;84;21463;-54
2021/03/13 08:31:46;;;;;;;37.53;29.63;;;;;;;6.74;69.18;100148.80;1694665;84;21079;-54
2021/03/13 08:34:23;;;;;;;39.05;30.50;;;;;;;6.91;68.93;100141.35;1694734;83;21059;-54
2021/03/13 08:36:54;;;;;;;39.25;29.75;;;;;;;7.20;68.86;100141.66;1694421;84;21063;-54
2021/03/13 08:39:30;;;;;;;36.63;28.98;;;;;;;7.39;67.42;100150.33;1695018;84;21082;-54
2021/03/13 08:41:59;;;;;;;42.95;29.65;;;;;;;7.51;67.01;100145.50;1695232;84;21338;-54
2021/03/13 08:44:38;;;;;;;71.65;59.58;;;;;;;7.62;66.30;100128.66;1695041;84;21027;-54
2021/03/13 08:47:10;;;;;;;40.65;29.37;;;;;;;7.60;66.49;100138.48;1695080;84;21059;-54
2021/03/13 08:49:48;;;;;;;35.23;28.52;;;;;;;7.84;66.41;100143.58;1695494;84;21622;-53
2021/03/13 08:52:21;;;;;;;41.30;29.85;;;;;;;8.01;65.98;100142.62;1694787;84;21032;-53
2021/03/13 08:55:05;;;;;;;35.00;27.75;;;;;;;8.16;64.99;100148.20;1811507;79;20918;-55
2021/03/13 08:57:44;;;;;;;40.75;31.17;;;;;;;8.09;65.11;100149.78;1768089;80;21612;-54
2021/03/13 09:00:16;;;;;;;38.00;29.55;;;;;;;8.16;65.06;100150.93;1751212;81;21372;-55
2021/03/13 09:02:43;;;;;;;33.00;25.55;;;;;;;8.34;64.75;100147.47;1751067;81;21053;-54
2021/03/13 09:05:20;;;;;;;41.85;29.67;;;;;;;8.56;64.09;100138.58;1751076;81;21942;-54
2021/03/13 09:07:55;;;;;;;41.90;31.45;;;;;;;8.61;63.15;100137.22;1750479;81;21037;-54
2021/03/13 09:10:24;;;;;;;;;;;;;;;8.40;63.00;100151.88;1752830;81;21061;-54
2021/03/13 09:12:57;;;;;;;44.35;32.28;;;;;;;7.99;63.68;100159.30;1749948;81;21282;-54
2021/03/13 09:15:26;;;;;;;43.63;32.40;;;;;;;7.68;64.75;100153.58;1750009;81;22192;-55
2021/03/13 09:17:58;;;;;;;46.65;31.87;;;;;;;7.54;65.55;100151.00;1677959;81;21060;-54
2021/03/13 09:20:26;;;;;;;42.55;32.35;;;;;;;7.45;65.84;100160.22;1750596;81;21049;-54
2021/03/13 09:22:59;;;;;;;39.98;30.68;;;;;;;7.25;66.28;100140.35;1750557;81;21025;-54
2021/03/13 09:25:27;;;;;;;40.67;31.17;;;;;;;7.24;66.42;100140.06;1750166;81;22277;-54
2021/03/13 09:27:56;;;;;;;44.38;32.75;;;;;;;7.37;66.28;100147.02;1750173;81;21033;-54
2021/03/13 09:30:30;;;;;;;46.68;31.97;;;;;;;7.56;65.73;100144.20;1750133;81;21020;-54
2021/03/13 09:32:57;;;;;;;44.75;33.60;;;;;;;7.87;65.18;100143.61;1723165;81;21056;-54
2021/03/13 09:35:29;;;;;;;41.68;31.70;;;;;;;8.15;65.04;100146.53;1750377;81;21259;-55
2021/03/13 09:37:56;;;;;;;43.55;33.53;;;;;;;8.52;63.88;100142.94;1750492;81;21383;-54
2021/03/13 09:40:26;;;;;;;46.35;33.60;;;;;;;8.87;62.88;100145.53;1750192;81;21048;-54
2021/03/13 09:42:55;;;;;;;45.17;33.53;;;;;;;9.13;62.12;100142.86;1750832;81;22562;-54
2021/03/13 09:45:24;;;;;;;51.90;36.13;;;;;;;9.43;61.01;100142.11;1750917;81;21739;-54
2021/03/13 09:47:58;;;;;;;46.15;35.20;;;;;;;9.63;60.25;100150.05;1751069;81;21009;-54
2021/03/13 09:50:35;;;;;;;49.55;37.73;;;;;;;9.74;59.64;100148.95;1749788;81;21285;-54
2021/03/13 09:53:08;;;;;;;45.45;36.48;;;;;;;9.81;59.46;100137.72;1749927;81;21675;-54
2021/03/13 09:55:41;;;;;;;46.15;34.70;;;;;;;9.83;59.12;100132.77;1744197;82;21411;-55
2021/03/13 09:58:10;;;;;;;47.95;37.38;;;;;;;9.99;59.10;100132.23;1697749;82;21049;-54
2021/03/13 10:00:42;;;;;;;46.77;35.73;;;;;;;10.24;58.59;100136.82;1673860;82;20982;-54
2021/03/13 10:03:16;;;;;;;43.38;34.40;;;;;;;10.39;58.05;100140.12;1745507;82;21657;-54
2021/03/13 10:05:56;;;;;;;41.18;31.95;;;;;;;10.53;57.00;100142.55;1745099;82;22288;-55
2021/03/13 10:08:38;;;;;;;41.08;32.67;;;;;;;10.54;56.55;100140.08;1745160;82;21045;-54
2021/03/13 10:11:16;;;;;;;44.25;33.88;;;;;;;10.58;56.35;100137.58;1744722;82;21006;-54
2021/03/13 10:13:46;;;;;;;43.20;32.30;;;;;;;10.66;56.07;100136.16;1745057;82;21584;-54
2021/03/13 10:16:15;;;;;;;42.00;32.48;;;;;;;10.82;56.04;100139.69;1697632;82;22376;-54
2021/03/13 10:18:47;;;;;;;42.45;32.95;;;;;;;10.98;55.52;100137.12;1742740;82;21014;-54
2021/03/13 10:21:29;;;;;;;44.65;34.38;;;;;;;11.18;54.79;100141.67;1744831;82;21187;-54
2021/03/13 10:24:01;;;;;;;41.95;31.10;;;;;;;11.17;54.10;100139.21;1744754;82;21191;-54
2021/03/13 10:26:31;;;;;;;39.63;32.67;;;;;;;11.15;54.31;100139.50;1744899;82;21048;-55
2021/03/13 10:31:45;;;;;;;41.85;33.35;;;;;;;11.21;54.32;100141.66;1844598;76;23096;-55
2021/03/13 10:34:14;;;;;;;41.40;30.85;;;;;;;11.25;53.76;100149.61;1815325;78;21005;-55
2021/03/13 10:36:47;;;;;;;35.88;29.80;;;;;;;11.23;53.36;100149.90;1815322;79;22891;-55
2021/03/13 10:39:18;;;;;;;38.45;27.30;;;;;;;11.17;53.49;100148.27;1814547;78;21651;-55
2021/03/13 10:42:00;;;;;;;37.90;29.67;;;;;;;11.09;53.54;100147.52;1815744;79;21631;-55
2021/03/13 10:44:34;;;;;;;40.25;32.83;;;;;;;11.00;53.88;100140.95;1803954;79;20974;-55
2021/03/13 10:47:03;;;;;;;40.80;32.45;;;;;;;11.01;53.78;100141.23;1814811;79;21097;-55
2021/03/13 10:49:40;;;;;;;40.20;31.95;;;;;;;11.09;53.97;100142.02;1814332;78;21685;-55
2021/03/13 10:52:07;;;;;;;40.88;31.20;;;;;;;11.34;53.56;100140.20;1814971;78;21107;-55
2021/03/13 10:54:35;;;;;;;40.17;32.15;;;;;;;11.35;52.53;100134.42;1813388;78;21035;-55
2021/03/13 10:57:08;;;;;;;52.03;38.83;;;;;;;11.39;52.74;100139.62;1803969;79;21066;-55
2021/03/13 10:59:38;;;;;;;45.35;35.15;;;;;;;11.45;52.17;100134.91;1781434;80;26781;-54
2021/03/13 11:02:09;;;;;;;42.62;33.73;;;;;;;11.38;52.59;100132.47;1780831;80;22111;-55
2021/03/13 11:04:36;;;;;;;40.20;32.48;;;;;;;11.57;52.55;100125.74;1780809;80;21055;-55
2021/03/13 11:07:09;;;;;;;42.78;32.38;;;;;;;11.83;51.56;100124.69;1780993;80;21178;-55
2021/03/13 11:09:37;;;;;;;38.73;29.48;;;;;;;11.88;51.25;100126.02;1780829;80;21031;-55
2021/03/13 11:12:06;;;;;;;42.00;29.55;;;;;;;12.01;50.85;100123.98;1781056;80;20988;-55
2021/03/13 11:14:39;;;;;;;36.77;28.05;;;;;;;12.02;50.77;100120.13;1780920;80;22188;-55
2021/03/13 11:17:18;;;;;;;36.93;26.95;;;;;;;12.25;50.74;100128.15;1780906;80;21684;-55
2021/03/13 11:19:45;;;;;;;34.20;26.70;;;;;;;12.50;49.18;100123.45;1781080;80;20984;-55
2021/03/13 11:22:14;;;;;;;35.05;27.82;;;;;;;12.45;49.12;100127.66;1781318;80;20991;-55
2021/03/13 11:24:43;;;;;;;31.48;25.85;;;;;;;12.35;49.16;100119.53;1780995;80;21059;-55
2021/03/13 11:27:17;;;;;;;30.82;25.65;;;;;;;12.33;48.98;100113.47;1780940;80;21385;-55
2021/03/13 11:29:54;;;;;;;33.40;24.82;;;;;;;12.34;48.98;100118.69;1887193;76;22628;-56
2021/03/13 11:32:25;;;;;;;34.53;25.65;;;;;;;12.32;48.66;100122.30;1857758;77;21025;-55
2021/03/13 11:34:53;;;;;;;32.73;25.08;;;;;;;12.20;48.91;100117.75;1857882;77;21185;-55
2021/03/13 11:37:24;;;;;;;29.52;24.52;;;;;;;12.20;48.66;100110.86;1857838;77;21017;-55
2021/03/13 11:39:52;;;;;;;34.27;27.30;;;;;;;12.22;48.89;100114.16;1857864;77;21049;-55
2021/03/13 11:42:19;;;;;;;34.23;24.40;;;;;;;12.33;48.84;100111.56;1858189;77;21639;-55
2021/03/13 11:44:57;;;;;;;37.65;24.67;;;;;;;12.61;48.70;100113.15;1857976;77;21025;-55
2021/03/13 11:47:25;;;;;;;30.43;24.98;;;;;;;12.79;48.09;100108.23;1857756;77;21393;-55